createdAt,value
2023-04-09T00:01:19.906Z,100.00
2023-04-09T00:03:51.098Z,100.00
2023-04-09T00:06:21.976Z,100.00
2023-04-09T00:08:49.931Z,100.00
2023-04-09T00:11:18.297Z,100.00
2023-04-09T00:13:46.016Z,100.00
2023-04-09T00:16:13.927Z,100.00
2023-04-09T00:18:41.880Z,100.00
2023-04-09T00:21:09.710Z,100.00
2023-04-09T00:23:40.596Z,100.00
2023-04-09T00:26:08.464Z,100.00
2023-04-09T00:28:36.434Z,100.00
2023-04-09T00:31:04.386Z,100.00
2023-04-09T00:33:32.276Z,100.00
2023-04-09T00:36:00.143Z,100.00
2023-04-09T00:38:28.167Z,100.00
2023-04-09T00:40:55.922Z,100.00
2023-04-09T00:43:23.673Z,100.00
2023-04-09T00:45:51.458Z,100.00
2023-04-09T00:48:19.215Z,100.00
2023-04-09T00:50:50.245Z,100.00
2023-04-09T00:53:18.107Z,100.00
2023-04-09T00:55:45.933Z,100.00
2023-04-09T00:58:14.078Z,100.00
2023-04-09T01:00:41.877Z,100.00
2023-04-09T01:03:09.871Z,100.00
2023-04-09T01:05:46.803Z,100.00
2023-04-09T01:08:14.711Z,100.00
2023-04-09T01:10:59.352Z,100.00
2023-04-09T01:13:42.576Z,100.00
2023-04-09T01:16:12.266Z,100.00
2023-04-09T01:18:45.095Z,100.00
2023-04-09T01:21:21.125Z,100.00
2023-04-09T01:23:57.997Z,100.00
2023-04-09T01:26:30.862Z,100.00
2023-04-09T01:29:00.531Z,100.00
2023-04-09T01:31:29.685Z,100.00
2023-04-09T01:33:57.684Z,100.00
2023-04-09T01:36:26.492Z,100.00
2023-04-09T01:38:55.951Z,100.00
2023-04-09T01:41:26.850Z,100.00
2023-04-09T01:43:55.502Z,100.00
2023-04-09T01:46:24.541Z,100.00
2023-04-09T01:48:52.753Z,100.00
2023-04-09T01:51:21.040Z,100.00
2023-04-09T01:53:49.420Z,100.00
2023-04-09T01:56:19.823Z,100.00
2023-04-09T01:58:47.641Z,100.00
2023-04-09T02:01:30.063Z,100.00
2023-04-09T02:04:00.513Z,100.00
2023-04-09T02:06:47.375Z,100.00
2023-04-09T02:09:17.065Z,100.00
2023-04-09T02:11:46.333Z,100.00
2023-04-09T02:14:15.326Z,100.00
2023-04-09T02:16:43.104Z,100.00
2023-04-09T02:19:11.859Z,100.00
2023-04-09T02:21:39.843Z,100.00
2023-04-09T02:24:07.606Z,100.00
2023-04-09T02:26:35.571Z,100.00
2023-04-09T02:29:05.543Z,100.00
2023-04-09T02:31:33.480Z,100.00
2023-04-09T02:34:01.493Z,100.00
2023-04-09T02:36:29.478Z,100.00
2023-04-09T02:38:57.235Z,100.00
2023-04-09T02:41:24.980Z,100.00
2023-04-09T02:43:52.817Z,100.00
2023-04-09T02:46:20.883Z,100.00
2023-04-09T02:48:48.890Z,100.00
2023-04-09T02:51:19.289Z,100.00
2023-04-09T02:53:49.527Z,100.00
2023-04-09T02:56:17.378Z,100.00
2023-04-09T02:58:45.158Z,100.00
2023-04-09T03:01:13.094Z,100.00
2023-04-09T03:03:41.052Z,100.00
2023-04-09T03:06:09.072Z,100.00
2023-04-09T03:08:39.188Z,100.00
2023-04-09T03:11:07.052Z,100.00
2023-04-09T03:13:34.779Z,100.00
2023-04-09T03:16:07.997Z,100.00
2023-04-09T03:18:36.472Z,100.00
2023-04-09T03:21:07.837Z,100.00
2023-04-09T03:23:37.099Z,100.00
2023-04-09T03:26:06.521Z,100.00
2023-04-09T03:28:47.664Z,100.00
2023-04-09T03:31:15.568Z,100.00
2023-04-09T03:33:46.540Z,100.00
2023-04-09T03:36:20.084Z,100.00
2023-04-09T03:39:16.613Z,100.00
2023-04-09T03:41:45.010Z,100.00
2023-04-09T03:44:16.072Z,100.00
2023-04-09T03:46:57.259Z,100.00
2023-04-09T03:49:25.688Z,100.00
2023-04-09T03:51:54.708Z,100.00
2023-04-09T03:54:24.387Z,100.00
2023-04-09T03:56:54.456Z,100.00
2023-04-09T03:59:23.578Z,100.00
2023-04-09T04:01:51.711Z,100.00
2023-04-09T04:04:23.420Z,100.00
2023-04-09T04:06:57.572Z,100.00
2023-04-09T04:09:38.051Z,100.00
2023-04-09T04:12:09.629Z,100.00
2023-04-09T04:14:52.471Z,100.00
2023-04-09T04:17:29.602Z,100.00
2023-04-09T04:19:57.442Z,100.00
2023-04-09T04:22:26.335Z,100.00
2023-04-09T04:24:56.297Z,100.00
2023-04-09T04:27:24.393Z,100.00
2023-04-09T04:29:52.318Z,100.00
2023-04-09T04:32:41.802Z,100.00
2023-04-09T04:35:11.333Z,100.00
2023-04-09T04:37:39.636Z,100.00
2023-04-09T04:40:08.366Z,100.00
2023-04-09T04:42:38.784Z,100.00
2023-04-09T04:45:11.163Z,100.00
2023-04-09T04:47:44.357Z,100.00
2023-04-09T04:50:12.165Z,100.00
2023-04-09T04:52:51.576Z,100.00
2023-04-09T04:55:20.750Z,100.00
2023-04-09T04:57:50.445Z,100.00
2023-04-09T05:00:19.456Z,100.00
2023-04-09T05:02:48.613Z,100.00
2023-04-09T05:05:23.409Z,100.00
2023-04-09T05:07:54.798Z,100.00
2023-04-09T05:10:23.098Z,100.00
2023-04-09T05:12:54.008Z,100.00
2023-04-09T05:15:28.020Z,100.00
2023-04-09T05:17:56.136Z,100.00
2023-04-09T05:20:24.083Z,100.00
2023-04-09T05:23:01.205Z,100.00
2023-04-09T05:25:32.310Z,100.00
2023-04-09T05:28:01.215Z,100.00
2023-04-09T05:30:30.594Z,100.00
2023-04-09T05:32:59.118Z,100.00
2023-04-09T05:35:27.813Z,100.00
2023-04-09T05:37:55.879Z,100.00
2023-04-09T05:40:24.210Z,100.00
2023-04-09T05:42:53.987Z,100.00
2023-04-09T05:45:42.435Z,100.00
2023-04-09T05:48:10.285Z,100.00
2023-04-09T05:50:53.440Z,100.00
2023-04-09T05:53:22.752Z,100.00
2023-04-09T05:55:50.513Z,100.00
2023-04-09T05:58:19.354Z,100.00
2023-04-09T06:00:47.967Z,100.00
2023-04-09T06:03:15.819Z,100.00
2023-04-09T06:05:45.147Z,100.00
2023-04-09T06:08:12.988Z,100.00
2023-04-09T06:10:41.442Z,100.00
2023-04-09T06:13:10.169Z,100.00
2023-04-09T06:15:38.516Z,100.00
2023-04-09T06:18:06.728Z,100.00
2023-04-09T06:20:34.734Z,100.00
2023-04-09T06:23:02.824Z,100.00
2023-04-09T06:25:33.135Z,100.00
2023-04-09T06:28:01.138Z,100.00
2023-04-09T06:30:29.295Z,100.00
2023-04-09T06:32:57.043Z,100.00
2023-04-09T06:35:24.817Z,100.00
2023-04-09T06:37:52.548Z,100.00
2023-04-09T06:40:22.990Z,100.00
2023-04-09T06:42:51.314Z,100.00
2023-04-09T06:45:23.877Z,100.00
2023-04-09T06:47:51.824Z,100.00
2023-04-09T06:50:19.951Z,100.00
2023-04-09T06:52:47.764Z,100.00
2023-04-09T06:55:18.267Z,100.00
2023-04-09T06:57:46.233Z,100.00
2023-04-09T07:00:14.142Z,100.00
2023-04-09T07:02:42.572Z,100.00
2023-04-09T07:05:13.276Z,100.00
2023-04-09T07:07:41.592Z,100.00
2023-04-09T07:10:19.455Z,100.00
2023-04-09T07:12:50.203Z,100.00
2023-04-09T07:15:18.030Z,100.00
2023-04-09T07:17:48.890Z,100.00
2023-04-09T07:20:19.297Z,100.00
2023-04-09T07:22:47.263Z,100.00
2023-04-09T07:25:21.201Z,100.00
2023-04-09T07:27:58.614Z,100.00
2023-04-09T07:30:26.495Z,100.00
2023-04-09T07:32:54.553Z,100.00
2023-04-09T07:35:22.315Z,100.00
2023-04-09T07:37:50.143Z,100.00
2023-04-09T07:40:18.197Z,100.00
2023-04-09T07:42:50.863Z,100.00
2023-04-09T07:45:18.715Z,100.00
2023-04-09T07:47:49.848Z,100.00
2023-04-09T07:50:17.678Z,100.00
2023-04-09T07:52:45.450Z,100.00
2023-04-09T07:55:16.749Z,100.00
2023-04-09T07:57:45.295Z,100.00
2023-04-09T08:00:13.396Z,100.00
2023-04-09T08:02:41.505Z,100.00
2023-04-09T08:05:09.857Z,100.00
2023-04-09T08:07:40.883Z,100.00
2023-04-09T08:10:08.929Z,100.00
2023-04-09T08:12:36.801Z,100.00
2023-04-09T08:15:04.732Z,100.00
2023-04-09T08:17:32.688Z,100.00
2023-04-09T08:20:03.093Z,100.00
2023-04-09T08:22:31.192Z,100.00
2023-04-09T08:25:00.271Z,100.00
2023-04-09T08:27:39.062Z,100.00
2023-04-09T08:30:07.512Z,100.00
2023-04-09T08:32:35.381Z,100.00
2023-04-09T08:35:03.329Z,100.00
2023-04-09T08:37:31.067Z,100.00
2023-04-09T08:39:58.859Z,100.00
2023-04-09T08:42:27.425Z,100.00
2023-04-09T08:44:55.331Z,100.00
2023-04-09T08:47:23.932Z,100.00
2023-04-09T08:49:52.976Z,100.00
2023-04-09T08:52:30.613Z,100.00
2023-04-09T08:54:58.710Z,100.00
2023-04-09T08:57:26.902Z,100.00
2023-04-09T08:59:54.945Z,100.00
2023-04-09T09:02:25.415Z,100.00
2023-04-09T09:04:53.575Z,100.00
2023-04-09T09:07:24.719Z,100.00
2023-04-09T09:10:12.354Z,100.00
2023-04-09T09:12:43.529Z,100.00
2023-04-09T09:15:28.144Z,100.00
2023-04-09T09:17:57.057Z,100.00
2023-04-09T09:20:34.153Z,100.00
2023-04-09T09:23:02.469Z,100.00
2023-04-09T09:25:30.381Z,100.00
2023-04-09T09:28:07.061Z,100.00
2023-04-09T09:30:35.129Z,100.00
2023-04-09T09:33:07.458Z,100.00
2023-04-09T09:35:48.699Z,100.00
2023-04-09T09:38:17.176Z,100.00
2023-04-09T09:40:45.033Z,100.00
2023-04-09T09:43:14.529Z,100.00
2023-04-09T09:45:42.742Z,100.00
2023-04-09T09:48:11.376Z,100.00
2023-04-09T09:50:43.240Z,100.00
2023-04-09T09:53:11.835Z,100.00
2023-04-09T09:55:40.992Z,100.00
2023-04-09T09:58:16.394Z,100.00
2023-04-09T10:00:46.534Z,100.00
2023-04-09T10:03:15.391Z,100.00
2023-04-09T10:05:44.854Z,100.00
2023-04-09T10:08:13.182Z,100.00
2023-04-09T10:10:47.011Z,100.00
2023-04-09T10:13:33.844Z,100.00
2023-04-09T10:16:01.946Z,99.94
2023-04-09T10:18:30.466Z,100.00
2023-04-09T10:21:08.377Z,99.03
2023-04-09T10:23:41.873Z,99.61
2023-04-09T10:26:10.324Z,99.24
2023-04-09T10:28:38.475Z,99.22
2023-04-09T10:31:07.154Z,98.65
2023-04-09T10:33:49.308Z,97.95
2023-04-09T10:36:19.074Z,98.04
2023-04-09T10:38:47.149Z,97.54
2023-04-09T10:41:16.958Z,97.35
2023-04-09T10:43:47.133Z,96.82
2023-04-09T10:46:50.312Z,95.52
2023-04-09T10:49:25.469Z,94.71
2023-04-09T10:51:53.633Z,94.36
2023-04-09T10:54:34.070Z,93.65
2023-04-09T10:57:12.456Z,92.54
2023-04-09T10:59:41.368Z,92.22
2023-04-09T11:02:10.625Z,91.16
2023-04-09T11:05:12.700Z,89.66
2023-04-09T11:08:10.063Z,89.90
2023-04-09T11:10:58.041Z,88.20
2023-04-09T11:13:46.392Z,87.89
2023-04-09T11:16:26.570Z,85.98
2023-04-09T11:19:16.187Z,84.18
2023-04-09T11:21:47.843Z,83.13
2023-04-09T11:24:18.778Z,82.79
2023-04-09T11:27:07.155Z,82.51
2023-04-09T11:29:46.671Z,81.88
2023-04-09T11:32:15.431Z,80.72
2023-04-09T11:34:55.632Z,79.79
2023-04-09T11:37:44.025Z,77.16
2023-04-09T11:40:40.912Z,74.16
2023-04-09T11:43:29.182Z,71.48
2023-04-09T11:46:09.066Z,70.49
2023-04-09T11:49:00.100Z,69.59
2023-04-09T11:51:33.858Z,68.77
2023-04-09T11:54:20.503Z,66.46
2023-04-09T11:57:25.891Z,61.71
2023-04-09T12:00:14.161Z,60.46
2023-04-09T12:03:02.622Z,58.32
2023-04-09T12:05:51.372Z,51.24
2023-04-09T12:08:50.822Z,49.98
2023-04-09T12:11:50.831Z,49.38
2023-04-09T12:14:24.538Z,49.82
2023-04-09T12:16:52.620Z,48.45
2023-04-09T12:19:20.801Z,47.58
2023-04-09T12:21:55.403Z,46.65
2023-04-09T12:24:31.212Z,47.76
2023-04-09T12:27:02.212Z,46.35
2023-04-09T12:29:30.311Z,47.57
2023-04-09T12:32:01.678Z,48.91
2023-04-09T12:34:50.018Z,50.69
2023-04-09T12:37:31.232Z,52.45
2023-04-09T12:39:59.130Z,53.99
2023-04-09T12:42:32.555Z,54.42
2023-04-09T12:45:02.846Z,54.47
2023-04-09T12:47:30.917Z,54.81
2023-04-09T12:50:01.004Z,55.93
2023-04-09T12:52:34.924Z,56.45
2023-04-09T12:55:05.930Z,56.85
2023-04-09T12:57:39.303Z,56.92
2023-04-09T13:00:07.738Z,56.94
2023-04-09T13:02:38.443Z,57.28
2023-04-09T13:05:13.269Z,57.75
2023-04-09T13:07:46.650Z,57.89
2023-04-09T13:10:14.743Z,57.43
2023-04-09T13:12:42.574Z,57.63
2023-04-09T13:15:10.803Z,58.05
2023-04-09T13:17:38.844Z,58.34
2023-04-09T13:20:07.134Z,58.80
2023-04-09T13:22:37.756Z,59.38
2023-04-09T13:25:07.247Z,59.97
2023-04-09T13:27:35.167Z,60.88
2023-04-09T13:30:02.985Z,61.07
2023-04-09T13:32:31.704Z,61.44
2023-04-09T13:34:59.873Z,61.72
2023-04-09T13:37:27.681Z,61.99
2023-04-09T13:39:58.171Z,62.65
2023-04-09T13:42:25.989Z,63.66
2023-04-09T13:44:53.936Z,64.32
2023-04-09T13:47:22.025Z,64.67
2023-04-09T13:49:49.885Z,65.59
2023-04-09T13:52:17.656Z,66.31
2023-04-09T13:54:45.815Z,66.48
2023-04-09T13:57:16.993Z,66.21
2023-04-09T13:59:54.075Z,66.34
2023-04-09T14:02:22.427Z,66.18
2023-04-09T14:04:50.379Z,65.55
2023-04-09T14:07:18.354Z,65.33
2023-04-09T14:09:46.102Z,65.03
2023-04-09T14:12:13.982Z,64.54
2023-04-09T14:14:55.238Z,63.33
2023-04-09T14:17:33.196Z,62.42
2023-04-09T14:20:01.380Z,62.18
2023-04-09T14:22:29.644Z,62.22
2023-04-09T14:25:09.896Z,62.02
2023-04-09T14:27:37.821Z,62.36
2023-04-09T14:30:05.919Z,63.21
2023-04-09T14:32:33.851Z,63.37
2023-04-09T14:35:07.470Z,64.21
2023-04-09T14:37:47.884Z,65.19
2023-04-09T14:40:16.043Z,65.88
2023-04-09T14:42:46.052Z,67.12
2023-04-09T14:45:14.050Z,68.17
2023-04-09T14:47:42.038Z,68.52
2023-04-09T14:50:13.134Z,69.74
2023-04-09T14:52:41.000Z,71.00
2023-04-09T14:55:15.085Z,71.95
2023-04-09T14:57:43.135Z,72.83
2023-04-09T15:00:12.067Z,73.41
2023-04-09T15:02:47.737Z,73.78
2023-04-09T15:05:16.123Z,74.12
2023-04-09T15:07:43.831Z,74.65
2023-04-09T15:10:11.734Z,75.21
2023-04-09T15:12:39.767Z,75.64
2023-04-09T15:15:08.197Z,75.97
2023-04-09T15:17:39.222Z,76.30
2023-04-09T15:20:10.083Z,76.11
2023-04-09T15:22:40.451Z,75.81
2023-04-09T15:25:08.620Z,75.99
2023-04-09T15:27:36.385Z,75.93
2023-04-09T15:30:04.488Z,75.69
2023-04-09T15:32:53.027Z,75.43
2023-04-09T15:35:24.107Z,74.89
2023-04-09T15:37:59.452Z,74.60
2023-04-09T15:40:32.225Z,74.46
2023-04-09T15:43:00.091Z,74.39
2023-04-09T15:45:28.114Z,74.32
2023-04-09T15:48:16.916Z,73.99
2023-04-09T15:50:44.890Z,73.71
2023-04-09T15:53:15.705Z,74.03
2023-04-09T15:55:43.736Z,74.40
2023-04-09T15:58:11.706Z,74.40
2023-04-09T16:00:39.579Z,74.28
2023-04-09T16:03:07.367Z,74.71
2023-04-09T16:05:35.158Z,74.49
2023-04-09T16:08:03.003Z,74.75
2023-04-09T16:10:31.126Z,74.52
2023-04-09T16:12:59.226Z,74.96
2023-04-09T16:15:27.286Z,74.80
2023-04-09T16:17:55.627Z,74.48
2023-04-09T16:20:23.365Z,74.16
2023-04-09T16:22:51.273Z,74.53
2023-04-09T16:25:19.060Z,74.95
2023-04-09T16:27:46.982Z,75.45
2023-04-09T16:30:14.997Z,76.25
2023-04-09T16:32:43.138Z,76.63
2023-04-09T16:35:10.977Z,77.04
2023-04-09T16:37:38.952Z,76.98
2023-04-09T16:40:07.710Z,77.66
2023-04-09T16:42:35.814Z,78.00
2023-04-09T16:45:07.092Z,78.06
2023-04-09T16:47:35.629Z,78.43
2023-04-09T16:50:03.779Z,78.74
2023-04-09T16:52:31.537Z,79.25
2023-04-09T16:54:59.535Z,79.48
2023-04-09T16:57:27.284Z,80.16
2023-04-09T16:59:55.623Z,80.70
2023-04-09T17:02:26.501Z,80.89
2023-04-09T17:04:54.745Z,81.03
2023-04-09T17:07:25.423Z,81.13
2023-04-09T17:09:53.814Z,81.99
2023-04-09T17:12:22.064Z,82.23
2023-04-09T17:14:50.044Z,82.61
2023-04-09T17:17:18.340Z,83.45
2023-04-09T17:19:46.146Z,83.51
2023-04-09T17:22:14.443Z,83.63
2023-04-09T17:24:42.381Z,84.12
2023-04-09T17:27:10.321Z,84.35
2023-04-09T17:29:38.145Z,84.34
2023-04-09T17:32:06.319Z,84.74
2023-04-09T17:34:34.167Z,85.04
2023-04-09T17:37:02.053Z,85.34
2023-04-09T17:39:29.994Z,85.53
2023-04-09T17:41:57.831Z,86.11
2023-04-09T17:44:25.803Z,86.33
2023-04-09T17:46:54.062Z,86.84
2023-04-09T17:49:21.848Z,87.20
2023-04-09T17:51:50.034Z,87.40
2023-04-09T17:54:19.297Z,87.83
2023-04-09T17:56:47.445Z,88.08
2023-04-09T17:59:15.611Z,88.24
2023-04-09T18:01:43.820Z,88.78
2023-04-09T18:04:12.102Z,88.99
2023-04-09T18:06:40.823Z,89.24
2023-04-09T18:09:08.882Z,89.93
2023-04-09T18:11:37.759Z,89.85
2023-04-09T18:14:06.012Z,90.43
2023-04-09T18:16:37.750Z,90.71
2023-04-09T18:19:06.385Z,90.86
2023-04-09T18:21:34.623Z,91.11
2023-04-09T18:24:02.965Z,91.20
2023-04-09T18:26:31.308Z,91.63
2023-04-09T18:29:01.007Z,91.80
2023-04-09T18:31:31.967Z,91.96
2023-04-09T18:34:00.141Z,92.29
2023-04-09T18:36:28.035Z,92.40
2023-04-09T18:38:56.862Z,92.59
2023-04-09T18:41:25.428Z,92.69
2023-04-09T18:43:53.598Z,92.82
2023-04-09T18:46:22.056Z,93.01
2023-04-09T18:48:50.385Z,93.16
2023-04-09T18:51:20.718Z,93.33
2023-04-09T18:53:48.979Z,93.54
2023-04-09T18:56:17.597Z,93.77
2023-04-09T18:58:46.044Z,93.98
2023-04-09T19:01:17.690Z,94.32
2023-04-09T19:03:46.393Z,94.51
2023-04-09T19:06:16.386Z,94.64
2023-04-09T19:08:45.302Z,94.85
2023-04-09T19:11:13.911Z,95.27
2023-04-09T19:13:42.039Z,95.52
2023-04-09T19:16:13.410Z,95.85
2023-04-09T19:18:44.581Z,95.92
2023-04-09T19:21:12.742Z,96.13
2023-04-09T19:23:40.885Z,96.25
2023-04-09T19:26:16.321Z,96.38
2023-04-09T19:28:47.663Z,96.59
2023-04-09T19:31:15.928Z,96.54
2023-04-09T19:33:44.059Z,96.68
2023-04-09T19:36:12.501Z,96.71
2023-04-09T19:38:40.716Z,96.89
2023-04-09T19:41:08.862Z,97.03
2023-04-09T19:43:39.212Z,97.13
2023-04-09T19:46:07.764Z,97.26
2023-04-09T19:48:37.044Z,97.50
2023-04-09T19:51:05.302Z,97.55
2023-04-09T19:53:36.243Z,97.81
2023-04-09T19:56:04.443Z,97.89
2023-04-09T19:58:32.470Z,98.11
2023-04-09T20:01:00.690Z,98.40
2023-04-09T20:03:28.682Z,98.45
2023-04-09T20:05:56.809Z,98.73
2023-04-09T20:08:25.036Z,98.73
2023-04-09T20:10:52.831Z,98.93
2023-04-09T20:13:21.072Z,99.06
2023-04-09T20:15:49.172Z,99.21
2023-04-09T20:18:20.133Z,99.28
2023-04-09T20:20:48.218Z,99.39
2023-04-09T20:23:16.151Z,99.49
2023-04-09T20:25:44.043Z,99.56
2023-04-09T20:28:14.566Z,99.55
2023-04-09T20:30:45.281Z,99.71
2023-04-09T20:33:13.287Z,99.98
2023-04-09T20:35:41.132Z,100.00
2023-04-09T20:38:09.201Z,100.00
2023-04-09T20:40:37.079Z,100.00
2023-04-09T20:43:04.937Z,100.00
2023-04-09T20:45:32.831Z,100.00
2023-04-09T20:48:00.671Z,100.00
2023-04-09T20:50:28.511Z,100.00
2023-04-09T20:52:56.389Z,100.00
2023-04-09T20:55:24.900Z,100.00
2023-04-09T20:57:53.830Z,100.00
2023-04-09T21:00:22.035Z,100.00
2023-04-09T21:02:51.340Z,100.00
2023-04-09T21:05:24.036Z,100.00
2023-04-09T21:07:52.751Z,100.00
2023-04-09T21:10:21.342Z,100.00
2023-04-09T21:12:49.106Z,100.00
2023-04-09T21:15:17.168Z,100.00
2023-04-09T21:17:45.017Z,100.00
2023-04-09T21:20:12.900Z,100.00
2023-04-09T21:22:40.759Z,100.00
2023-04-09T21:25:08.808Z,100.00
2023-04-09T21:27:36.709Z,100.00
2023-04-09T21:30:04.728Z,100.00
2023-04-09T21:32:32.569Z,100.00
2023-04-09T21:35:00.376Z,100.00
2023-04-09T21:37:28.280Z,100.00
2023-04-09T21:39:56.119Z,100.00
2023-04-09T21:42:23.919Z,100.00
2023-04-09T21:44:51.804Z,100.00
2023-04-09T21:47:19.570Z,100.00
2023-04-09T21:49:47.256Z,100.00
2023-04-09T21:52:15.261Z,100.00
2023-04-09T21:54:43.425Z,100.00
2023-04-09T21:57:11.483Z,100.00
2023-04-09T21:59:41.890Z,100.00
2023-04-09T22:02:09.774Z,100.00
2023-04-09T22:04:40.159Z,100.00
2023-04-09T22:07:08.802Z,100.00
2023-04-09T22:09:39.696Z,100.00
2023-04-09T22:12:10.189Z,100.00
2023-04-09T22:14:40.100Z,100.00
2023-04-09T22:17:09.524Z,100.00
2023-04-09T22:19:37.264Z,100.00
2023-04-09T22:22:07.920Z,100.00
2023-04-09T22:24:35.746Z,100.00
2023-04-09T22:27:03.513Z,100.00
2023-04-09T22:29:31.440Z,100.00
2023-04-09T22:31:59.226Z,100.00
2023-04-09T22:34:27.034Z,100.00
2023-04-09T22:36:54.802Z,100.00
2023-04-09T22:39:22.732Z,100.00
2023-04-09T22:41:50.460Z,100.00
2023-04-09T22:44:18.217Z,100.00
2023-04-09T22:46:46.022Z,100.00
2023-04-09T22:49:13.807Z,100.00
2023-04-09T22:51:44.139Z,100.00
2023-04-09T22:54:11.972Z,100.00
2023-04-09T22:56:39.766Z,100.00
2023-04-09T22:59:07.842Z,100.00
2023-04-09T23:01:36.049Z,100.00
2023-04-09T23:04:04.023Z,100.00
2023-04-09T23:06:31.944Z,100.00
2023-04-09T23:08:59.854Z,100.00
2023-04-09T23:11:27.763Z,100.00
2023-04-09T23:13:55.497Z,100.00
2023-04-09T23:16:23.500Z,100.00
2023-04-09T23:18:51.524Z,100.00
2023-04-09T23:21:19.714Z,100.00
2023-04-09T23:23:52.433Z,100.00
2023-04-09T23:26:23.087Z,100.00
2023-04-09T23:28:54.238Z,100.00
2023-04-09T23:31:27.690Z,100.00
2023-04-09T23:33:56.016Z,100.00
2023-04-09T23:36:23.873Z,100.00
2023-04-09T23:39:04.974Z,100.00
2023-04-09T23:41:35.764Z,100.00
2023-04-09T23:44:04.055Z,100.00
2023-04-09T23:46:34.618Z,100.00
2023-04-09T23:49:02.763Z,100.00
2023-04-09T23:51:30.599Z,100.00
2023-04-09T23:53:58.415Z,100.00
2023-04-09T23:56:27.951Z,100.00
2023-04-09T23:59:06.311Z,100.00
